Hansa Limburg — A8IH6 — position and weather

sailwx.info

Track history (hours):
 
Tides and Currents Weather Stations Pressure Air Temp Water Temp Dewpoint Dewpoint Depression Visibility Wind Speed Wind Dir Waves Ship Positions

Hansa Limburg

Last reported at 2017-Mar-25 03:33 UTC. Time now 2017-Mar-25 03:49 UTC.
Position N 44°47' E 013°32'.

Length 175.5 m; beam 27.4 m; draft 10.9 m.

Type: Ship (hazmat cat A). MMSI: 636090980.

Date/timePositionNaut miles runAvg speedWind from/ knotsBaromVisibWave heightAir tempDewpointWater temp
2017-Mar-25 03:33N 44°47' E 013°32'1111.2
2017-Mar-25 02:34N 44°40' E 013°43'1211.6
2017-Mar-25 01:33N 44°39' E 013°60'1110.9
2017-Mar-25 00:33N 44°49' E 014°07'1311.7
2017-Mar-24 23:28N 45°01' E 014°14'20 1.7
2017-Mar-24 11:22N 45°19' E 014°27'5 6.5
2017-Mar-24 10:33N 45°15' E 014°21'1913.0
2017-Mar-24 09:06N 44°57' E 014°13'915.6
2017-Mar-24 08:33N 44°50' E 014°08'1414.3
2017-Mar-24 07:33N 44°36' E 014°05'1615.6
2017-Mar-24 06:33N 44°21' E 014°14'  
2017-Mar-17 22:29N 31°21' E 032°23'  
Track history (hours):
 
Tides and Currents Weather Stations Pressure Air Temp Water Temp Dewpoint Dewpoint Depression Visibility Wind Speed Wind Dir Waves Ship Positions

Hansa Limburg

Last reported at 2017-Mar-25 03:33 UTC. Time now 2017-Mar-25 03:49 UTC.
Position N 44°47' E 013°32'.

Length 175.5 m; beam 27.4 m; draft 10.9 m.

Type: Ship (hazmat cat A). MMSI: 636090980.

Date/timePositionNaut miles runAvg speedWind from/ knotsBaromVisibWave heightAir tempDewpointWater temp
2017-Mar-25 03:33N 44°47' E 013°32'1111.2
2017-Mar-25 02:34N 44°40' E 013°43'1211.6
2017-Mar-25 01:33N 44°39' E 013°60'1110.9
2017-Mar-25 00:33N 44°49' E 014°07'1311.7
2017-Mar-24 23:28N 45°01' E 014°14'20 1.7
2017-Mar-24 11:22N 45°19' E 014°27'5 6.5
2017-Mar-24 10:33N 45°15' E 014°21'1913.0
2017-Mar-24 09:06N 44°57' E 014°13'915.6
2017-Mar-24 08:33N 44°50' E 014°08'1414.3
2017-Mar-24 07:33N 44°36' E 014°05'1615.6
2017-Mar-24 06:33N 44°21' E 014°14'  
2017-Mar-17 22:29N 31°21' E 032°23'  

Dump ship's entire track history